Brookline, New Hampshire
Current Conditions -  °F | °C
As of 2:51 AM on Friday 19 Dec 2014 (Local Time) from KASH Reporting Station
Overcast Overcast  
Wind Chill: 29°   Ceiling: 2800
Heat Index: 34°   Visibility: 10mi
Dew Point: 25°   Wind: 6mph
Humidity: 70%   Direction: 300°WNW
Pressure: 29.88"   Gusts: NA
Location:  42.73°N, 71.66°W
Report Text: KASH 190751Z AUTO 30005KT 10SM OVC028 01/M04 A2988 RMK AO2 T00111038 OVC V BKN SLP372
Loading
Personal Weather Stations






























Interactive Weather Map New forecast layout! Learn more

10-Day Weather Forecast

Advertisements
Track Severe Weather on mobile